Time;durP1;ratioP1;P1;durP2;ratioP2;P2;SDS_P1;SDS_P2;PMS_P1;PMS_P2;Temp;Humidity;BMP_temperature;BMP_pressure;BME280_temperature;BME280_humidity;BME280_pressure;Samples;Min_cycle;Max_cycle;Signal;HPM_P1;HPM_P2
2021/10/11 14:28:42;;;;;;;3.80;2.50;;;;;;;18.22;46.92;95222.66;5112833;28;20549;-76
2021/10/11 14:32:00;;;;;;;5.43;2.63;;;;;;;18.23;46.69;95224.31;5069271;28;20032;-75
2021/10/11 15:58:47;;;;;;;5.30;2.60;;;;;;;18.21;46.78;95202.03;5080273;28;20028;-75
2021/10/11 16:01:15;;;;;;;5.60;2.30;;;;;;;18.22;47.28;95205.53;5080176;28;20021;-74
2021/10/11 16:06:07;;;;;;;5.78;2.40;;;;;;;18.21;46.92;95206.63;5083047;28;20495;-76
2021/10/11 16:08:32;;;;;;;3.88;2.55;;;;;;;18.20;47.12;95202.25;5081682;28;20044;-75
2021/10/11 16:10:58;;;;;;;4.50;2.65;;;;;;;18.19;47.26;95209.56;5085514;28;20032;-75
2021/10/11 16:13:24;;;;;;;4.22;2.47;;;;;;;18.18;47.13;95197.06;5087753;28;20028;-75
2021/10/11 16:15:50;;;;;;;5.72;2.47;;;;;;;18.20;46.82;95199.53;5049587;28;20032;-75
2021/10/11 16:18:15;;;;;;;4.97;2.67;;;;;;;18.21;47.15;95203.91;5071896;28;20031;-75
2021/10/11 16:20:41;;;;;;;6.35;2.65;;;;;;;18.21;46.99;95212.03;5069599;28;20579;-75
2021/10/11 16:23:06;;;;;;;7.53;2.72;;;;;;;18.20;47.10;95208.50;5089485;28;20020;-76
2021/10/11 16:25:32;;;;;;;5.72;2.70;;;;;;;18.21;47.16;95209.34;5085295;28;20032;-76
2021/10/11 16:27:57;;;;;;;6.82;2.92;;;;;;;18.21;46.84;95215.59;5087679;28;20031;-75
2021/10/11 16:30:23;;;;;;;4.65;2.90;;;;;;;18.21;47.28;95215.59;5052928;28;20031;-75
2021/10/11 16:32:48;;;;;;;5.72;2.55;;;;;;;18.21;46.70;95206.63;5052925;28;20050;-75
2021/10/11 16:35:14;;;;;;;5.90;2.75;;;;;;;18.22;47.05;95213.69;5069879;28;20024;-75
2021/10/11 16:37:39;;;;;;;5.30;3.03;;;;;;;18.22;47.09;95219.13;5085945;28;20029;-75
2021/10/11 16:40:06;;;;;;;5.15;2.72;;;;;;;18.20;46.84;95215.81;5052488;28;20023;-76
2021/10/11 16:42:31;;;;;;;3.90;2.33;;;;;;;18.18;47.16;95216.06;5047828;28;20067;-75
2021/10/11 16:44:57;;;;;;;3.83;2.67;;;;;;;18.19;47.33;95216.88;5062764;28;20482;-74
2021/10/11 16:47:23;;;;;;;3.88;2.60;;;;;;;18.18;47.17;95224.19;5063328;28;20028;-74
2021/10/11 16:49:49;;;;;;;6.25;3.28;;;;;;;18.19;47.08;95217.69;5066740;28;20017;-76
2021/10/11 16:52:15;;;;;;;7.10;3.20;;;;;;;18.16;46.94;95216.28;5084923;28;20032;-74
2021/10/11 16:54:40;;;;;;;5.03;2.80;;;;;;;18.18;47.21;95232.34;5085554;28;20027;-76
2021/10/11 16:57:06;;;;;;;6.65;2.53;;;;;;;18.17;47.26;95233.38;5088738;28;20024;-77
2021/10/11 16:59:31;;;;;;;4.05;2.90;;;;;;;18.18;46.92;95234.22;5069276;28;20035;-76
2021/10/11 17:01:57;;;;;;;4.65;2.78;;;;;;;18.18;47.31;95236.94;5086909;28;20028;-76
2021/10/11 17:04:23;;;;;;;6.22;3.13;;;;;;;18.15;46.99;95225.47;5082585;28;20020;-75
2021/10/11 17:06:48;;;;;;;6.00;3.08;;;;;;;18.14;47.19;95223.81;5086218;28;20517;-75
2021/10/11 17:09:13;;;;;;;5.57;2.85;;;;;;;18.13;47.40;95216.75;5083580;28;20044;-75
2021/10/11 17:11:39;;;;;;;6.15;2.90;;;;;;;18.12;47.52;95220.50;5067372;28;20047;-74
2021/10/11 17:14:04;;;;;;;4.80;2.70;;;;;;;18.13;47.28;95214.03;5083740;28;20055;-74
2021/10/11 17:16:30;;;;;;;6.32;3.08;;;;;;;18.14;47.46;95229.25;5083079;28;20028;-75
2021/10/11 17:18:56;;;;;;;7.25;3.20;;;;;;;18.12;47.08;95225.94;5084117;28;20094;-75
2021/10/11 17:21:22;;;;;;;6.43;3.20;;;;;;;18.13;47.31;95240.34;5079042;28;20063;-74
2021/10/11 17:23:47;;;;;;;5.15;3.05;;;;;;;18.12;46.94;95230.56;5070113;28;20419;-74
2021/10/11 17:26:13;;;;;;;6.25;2.80;;;;;;;18.12;47.34;95225.94;5080422;28;20028;-74
2021/10/11 17:28:38;;;;;;;4.20;2.83;;;;;;;18.10;47.33;95228.03;5030466;28;20040;-74
2021/10/11 17:31:04;;;;;;;5.25;2.92;;;;;;;18.11;47.53;95226.13;5057695;28;20036;-74
2021/10/11 17:33:29;;;;;;;7.28;2.70;;;;;;;18.11;47.25;95228.84;5049586;28;20036;-74
2021/10/11 17:35:57;;;;;;;7.20;2.90;;;;;;;18.11;47.19;95226.13;5083830;28;20055;-75
2021/10/11 17:38:23;;;;;;;6.25;3.15;;;;;;;18.10;47.52;95219.06;5084483;28;20031;-74
2021/10/11 17:40:48;;;;;;;5.80;3.20;;;;;;;18.09;47.46;95210.09;5077820;28;20044;-74
2021/10/11 17:43:14;;;;;;;5.93;3.25;;;;;;;18.09;47.34;95209.28;5082649;28;20032;-74
2021/10/11 17:45:39;;;;;;;10.55;3.20;;;;;;;18.08;47.48;95208.44;5083689;28;20024;-74
2021/10/11 17:48:04;;;;;;;7.35;3.30;;;;;;;18.08;47.31;95213.88;5083699;28;20032;-74
2021/10/11 17:50:30;;;;;;;9.93;3.33;;;;;;;18.08;47.60;95211.16;5081735;28;20040;-74
2021/10/11 17:52:56;;;;;;;6.53;3.17;;;;;;;18.07;47.30;95206.75;5074254;28;20082;-74
2021/10/11 17:55:25;;;;;;;8.65;3.10;;;;;;;18.08;47.29;95213.88;5077475;28;20028;-74
2021/10/11 17:57:51;;;;;;;9.40;3.30;;;;;;;18.08;47.54;95221.16;5067131;28;20065;-74
2021/10/11 18:00:17;;;;;;;7.20;2.92;;;;;;;18.07;47.48;95223.03;5066592;28;20024;-76
2021/10/11 18:02:43;;;;;;;10.05;2.97;;;;;;;18.06;47.45;95224.09;5066269;28;20060;-75
2021/10/11 18:05:08;;;;;;;11.25;3.40;;;;;;;18.07;47.26;95217.63;5039012;28;20395;-74
2021/10/11 18:07:34;;;;;;;7.40;3.45;;;;;;;18.06;47.42;95210.53;5080210;28;20060;-74
2021/10/11 18:10:02;;;;;;;116.45;69.95;;;;;;;18.04;47.76;95215.38;5067594;28;20089;-74
2021/10/11 18:12:28;;;;;;;113.53;67.28;;;;;;;17.96;47.98;95216.50;5083801;28;20071;-73
2021/10/11 18:14:55;;;;;;;90.75;53.55;;;;;;;17.86;48.23;95210.81;5085510;28;20485;-73
2021/10/11 18:17:22;;;;;;;62.95;38.90;;;;;;;17.70;48.57;95209.56;5067604;28;20414;-75
2021/10/11 18:19:47;;;;;;;62.30;38.28;;;;;;;17.51;48.83;95214.97;5068298;28;20031;-74
2021/10/11 18:22:13;;;;;;;58.38;34.08;;;;;;;17.41;49.16;95220.94;5067039;28;20548;-73
2021/10/11 18:24:38;;;;;;;47.58;29.83;;;;;;;17.29;49.52;95220.88;5084635;28;20024;-75
2021/10/11 18:27:04;;;;;;;42.03;24.67;;;;;;;17.24;49.41;95226.13;5084078;28;20094;-74
2021/10/11 18:29:29;;;;;;;37.53;23.77;;;;;;;17.21;49.38;95223.84;5083907;28;20510;-73
2021/10/11 18:31:54;;;;;;;36.22;21.98;;;;;;;17.21;49.46;95218.44;5062749;28;20021;-73
2021/10/11 18:34:20;;;;;;;33.17;20.30;;;;;;;17.24;49.36;95215.28;5083135;28;20024;-73
2021/10/11 18:36:45;;;;;;;30.23;19.25;;;;;;;17.26;49.64;95215.91;5083892;28;20017;-73
2021/10/11 18:39:11;;;;;;;29.65;18.17;;;;;;;17.26;49.88;95215.91;5065965;28;20487;-73
2021/10/11 18:41:37;;;;;;;24.63;15.57;;;;;;;17.27;49.48;95214.81;5083417;28;20423;-73
2021/10/11 18:44:03;;;;;;;23.55;15.00;;;;;;;17.25;49.39;95215.06;5061542;28;20112;-73
2021/10/11 18:46:28;;;;;;;20.05;13.23;;;;;;;17.27;49.29;95212.13;5079274;28;20039;-72
2021/10/11 18:48:53;;;;;;;19.08;12.02;;;;;;;17.26;49.25;95207.75;5084430;28;20032;-73
2021/10/11 18:51:21;;;;;;;17.42;10.82;;;;;;;17.25;49.54;95208.81;5083124;28;20032;-73
2021/10/11 18:53:46;;;;;;;15.43;10.50;;;;;;;17.25;49.58;95219.66;5084949;28;20159;-73
2021/10/11 18:56:12;;;;;;;18.27;11.65;;;;;;;17.23;49.28;95214.47;5086164;28;20557;-73
2021/10/11 18:58:37;;;;;;;16.35;10.05;;;;;;;17.25;49.37;95216.97;5088724;28;20102;-73
2021/10/11 19:01:03;;;;;;;16.60;9.85;;;;;;;17.23;49.49;95216.34;5078016;28;20862;-73
2021/10/11 19:03:31;;;;;;;14.82;9.52;;;;;;;17.20;49.25;95211.38;5080294;28;20051;-73
2021/10/11 19:05:56;;;;;;;13.98;8.40;;;;;;;17.17;49.42;95210.75;5086327;28;20062;-73
2021/10/11 19:08:22;;;;;;;14.15;8.23;;;;;;;17.13;49.28;95216.84;5069244;28;20084;-73
2021/10/11 19:10:47;;;;;;;13.57;8.15;;;;;;;17.09;49.64;95212.94;5079131;28;20032;-73
2021/10/11 19:13:14;;;;;;;12.57;7.30;;;;;;;17.06;49.79;95216.88;5086377;28;20483;-73
2021/10/11 19:15:44;;;;;;;11.75;6.90;;;;;;;17.02;49.75;95212.97;5069667;28;20089;-73
2021/10/11 19:18:10;;;;;;;12.93;6.93;;;;;;;16.97;49.61;95227.19;5086785;28;20107;-73
2021/10/11 19:20:36;;;;;;;11.18;6.72;;;;;;;16.96;49.74;95224.72;5070192;28;20456;-73
2021/10/11 19:23:01;;;;;;;11.23;6.63;;;;;;;16.96;49.66;95224.72;5066952;28;20029;-72
2021/10/11 19:25:27;;;;;;;9.25;5.78;;;;;;;16.95;49.82;95223.88;5085597;28;20040;-72
2021/10/11 19:27:53;;;;;;;9.68;5.85;;;;;;;16.90;49.79;95221.81;5067516;28;20094;-73
2021/10/11 19:30:18;;;;;;;8.93;5.05;;;;;;;16.90;49.88;95221.00;5084989;28;20095;-73
2021/10/11 19:32:44;;;;;;;9.90;5.30;;;;;;;16.88;49.93;95213.09;5087788;28;20107;-73
2021/10/11 19:35:09;;;;;;;10.68;5.72;;;;;;;16.89;49.84;95209.34;5085687;28;20028;-73
2021/10/11 19:37:35;;;;;;;9.98;5.70;;;;;;;16.91;49.77;95215.34;5070076;28;20036;-72
2021/10/11 19:40:04;;;;;;;10.30;6.00;;;;;;;16.97;49.56;95213.66;5066707;28;20027;-73
2021/10/11 19:42:31;;;;;;;8.85;5.22;;;;;;;17.00;49.77;95210.50;5067056;28;20453;-73
2021/10/11 19:44:57;;;;;;;9.90;5.97;;;;;;;17.04;49.64;95210.84;5085311;28;20516;-73
2021/10/11 19:47:22;;;;;;;9.07;5.63;;;;;;;17.03;49.65;95207.34;5086669;28;20027;-73
2021/10/11 19:49:51;;;;;;;9.88;6.03;;;;;;;17.05;49.39;95212.53;5067039;28;20039;-73
2021/10/11 19:52:17;;;;;;;8.55;5.50;;;;;;;17.05;49.41;95213.38;5086179;28;20043;-72
2021/10/11 19:54:42;;;;;;;10.68;5.50;;;;;;;17.05;49.59;95207.94;5087042;28;20035;-74
2021/10/11 19:57:07;;;;;;;9.30;5.63;;;;;;;17.08;49.54;95208.53;5085689;28;20375;-74
2021/10/11 19:59:33;;;;;;;8.00;4.88;;;;;;;17.07;49.52;95202.31;5086240;28;20047;-72
2021/10/11 20:01:58;;;;;;;8.55;5.30;;;;;;;17.00;49.64;95205.06;5086478;28;20020;-72
2021/10/11 20:04:24;;;;;;;8.80;5.10;;;;;;;16.98;49.53;95204.47;5068974;28;20035;-73
2021/10/11 20:06:49;;;;;;;8.55;5.30;;;;;;;16.98;49.65;95214.47;5085002;28;20418;-72
2021/10/11 20:09:15;;;;;;;7.63;5.10;;;;;;;16.95;49.64;95210.31;5085140;28;20449;-74
2021/10/11 20:11:41;;;;;;;10.60;5.38;;;;;;;16.97;49.69;95205.53;5050145;28;20490;-74
2021/10/11 20:14:09;;;;;;;8.70;5.10;;;;;;;16.96;49.75;95203.84;5052588;28;20031;-74
2021/10/11 20:16:34;;;;;;;10.57;5.80;;;;;;;16.97;49.67;95196.56;5068924;28;20016;-72
2021/10/11 20:18:59;;;;;;;8.48;5.30;;;;;;;16.97;49.79;95191.13;5086844;28;20020;-73
2021/10/11 20:21:25;;;;;;;9.18;5.32;;;;;;;16.97;49.44;95183.84;5087826;28;20028;-73
2021/10/11 20:23:50;;;;;;;8.88;5.25;;;;;;;16.92;49.51;95186.41;5087163;28;20035;-73
2021/10/11 20:26:16;;;;;;;9.85;5.40;;;;;;;16.90;49.60;95178.50;5084405;28;20028;-72
2021/10/11 20:28:41;;;;;;;7.90;4.50;;;;;;;16.92;49.66;95175.56;5069913;28;20482;-72
2021/10/11 20:31:07;;;;;;;6.35;4.47;;;;;;;16.92;49.78;95170.16;5068729;28;20028;-72
2021/10/11 20:33:32;;;;;;;6.43;4.40;;;;;;;16.94;49.51;95173.47;5086145;28;20107;-72
2021/10/11 20:35:59;;;;;;;8.95;4.38;;;;;;;16.96;49.55;95170.53;5084714;28;20085;-73
2021/10/11 20:38:25;;;;;;;7.03;4.38;;;;;;;16.98;49.58;95171.94;5065997;28;20032;-73
2021/10/11 20:40:50;;;;;;;8.40;4.60;;;;;;;16.99;49.44;95167.38;5066850;28;20024;-73
2021/10/11 20:43:16;;;;;;;7.70;4.30;;;;;;;16.98;49.51;95161.13;5086251;28;20024;-73
2021/10/11 20:45:41;;;;;;;8.95;4.03;;;;;;;16.98;49.51;95157.56;5068175;28;20028;-73
2021/10/11 20:48:07;;;;;;;6.30;4.05;;;;;;;16.97;49.44;95159.47;5051152;28;20054;-73
2021/10/11 20:50:32;;;;;;;7.35;3.92;;;;;;;16.95;49.60;95155.31;5086505;28;20031;-73
2021/10/11 20:52:57;;;;;;;6.97;3.88;;;;;;;16.91;49.56;95153.06;5068424;28;20090;-74
2021/10/11 20:55:23;;;;;;;6.30;3.63;;;;;;;16.91;49.60;95154.97;5065165;28;20036;-73
2021/10/11 20:57:48;;;;;;;5.07;3.53;;;;;;;16.89;49.68;95155.19;5068448;28;20020;-73
2021/10/11 21:00:14;;;;;;;5.28;3.13;;;;;;;16.88;49.55;95156.22;5085756;28;20019;-74
2021/10/11 21:02:39;;;;;;;5.18;3.35;;;;;;;16.90;49.69;95169.53;5068333;28;20036;-74
2021/10/11 21:05:05;;;;;;;6.22;3.70;;;;;;;16.92;49.69;95170.97;5067413;28;20039;-74
2021/10/11 21:07:31;;;;;;;6.47;3.30;;;;;;;16.93;49.60;95178.03;5052078;28;20024;-74
2021/10/11 21:09:56;;;;;;;5.63;3.00;;;;;;;16.90;49.57;95183.91;5085846;28;20047;-74
2021/10/11 21:12:22;;;;;;;6.35;3.20;;;;;;;16.89;49.73;95187.69;5086637;28;20069;-74
2021/10/11 21:14:47;;;;;;;7.20;3.30;;;;;;;16.81;49.92;95186.06;5085198;28;20030;-73
2021/10/11 21:17:12;;;;;;;5.18;3.03;;;;;;;16.82;50.13;95189.59;5067205;28;20032;-73
2021/10/11 21:19:38;;;;;;;5.35;3.40;;;;;;;16.81;50.10;95194.19;5050844;28;20097;-73
2021/10/11 21:22:03;;;;;;;5.65;3.42;;;;;;;16.85;50.32;95191.88;5067943;28;20020;-73
2021/10/11 21:24:29;;;;;;;6.18;3.72;;;;;;;16.88;50.17;95183.28;5084763;28;20092;-73
2021/10/11 21:26:54;;;;;;;7.40;3.78;;;;;;;16.88;50.02;95191.41;5066224;28;20058;-73
2021/10/11 21:29:20;;;;;;;5.57;3.60;;;;;;;16.89;50.12;95187.69;5064119;28;20033;-73
2021/10/11 21:31:45;;;;;;;6.68;4.25;;;;;;;16.90;50.21;95183.06;5066452;28;20101;-73
2021/10/11 21:34:11;;;;;;;6.07;3.78;;;;;;;16.92;50.14;95180.97;5085095;28;20521;-73
2021/10/11 21:36:37;;;;;;;5.40;3.30;;;;;;;16.95;50.03;95183.25;5066463;28;20073;-73
2021/10/11 21:39:02;;;;;;;6.30;3.50;;;;;;;16.98;49.78;95188.22;5048311;28;20163;-74
2021/10/11 21:41:28;;;;;;;7.38;4.38;;;;;;;17.01;50.22;95178.78;5047474;28;20025;-74
2021/10/11 21:43:53;;;;;;;7.80;4.35;;;;;;;17.04;49.91;95178.34;5064309;28;20024;-74
2021/10/11 21:46:19;;;;;;;6.55;4.05;;;;;;;17.02;50.04;95167.72;5083897;28;20028;-74
2021/10/11 21:48:44;;;;;;;5.78;3.55;;;;;;;17.04;50.05;95172.94;5064301;28;20036;-74
2021/10/11 21:51:10;;;;;;;6.65;4.28;;;;;;;17.02;50.10;95167.72;5085060;28;20490;-74
2021/10/11 21:53:35;;;;;;;6.65;4.03;;;;;;;16.99;50.19;95164.66;5067376;28;20500;-74
2021/10/11 21:56:02;;;;;;;5.50;3.67;;;;;;;16.96;50.02;95159.69;5067333;28;20032;-74
2021/10/11 21:58:28;;;;;;;7.50;4.10;;;;;;;16.97;50.09;95158.63;5084239;28;20107;-74
2021/10/11 22:00:54;;;;;;;6.88;3.80;;;;;;;16.98;50.20;95153.00;5067806;28;20285;-74
2021/10/11 22:03:20;;;;;;;6.97;4.10;;;;;;;16.99;50.05;95151.13;5051112;28;20058;-74
2021/10/11 22:05:46;;;;;;;6.15;4.15;;;;;;;16.96;50.59;95151.56;5065955;28;20467;-73
2021/10/11 22:08:12;;;;;;;6.30;3.83;;;;;;;16.90;50.61;95148.69;5085803;28;20036;-74
2021/10/11 22:10:39;;;;;;;7.45;3.60;;;;;;;16.84;50.75;95138.75;5083740;28;20124;-74
2021/10/11 22:13:04;;;;;;;6.57;4.15;;;;;;;16.84;50.78;95140.63;5068174;28;20480;-74
2021/10/11 22:15:29;;;;;;;6.80;4.13;;;;;;;16.81;51.06;95129.19;5083060;28;20039;-74
2021/10/11 22:17:55;;;;;;;5.00;3.40;;;;;;;16.78;51.07;95131.53;5084822;28;20028;-74
2021/10/11 22:20:20;;;;;;;6.38;3.47;;;;;;;16.72;51.11;95127.81;5082602;28;20505;-74
2021/10/11 22:22:46;;;;;;;8.20;4.07;;;;;;;16.67;51.47;95127.66;5066663;28;20568;-74
2021/10/11 22:25:11;;;;;;;6.05;3.92;;;;;;;16.62;51.74;95111.28;5083776;28;20028;-74
2021/10/11 22:27:36;;;;;;;6.80;3.47;;;;;;;16.51;51.91;95110.94;5066359;28;20024;-74
2021/10/11 22:30:02;;;;;;;4.75;3.20;;;;;;;16.44;52.17;95091.25;5085444;28;20047;-75
2021/10/11 22:32:28;;;;;;;5.57;3.42;;;;;;;16.34;52.42;95091.75;5087363;28;20024;-74
2021/10/11 22:34:53;;;;;;;4.72;2.97;;;;;;;16.26;52.66;95083.91;5087916;28;20457;-74
2021/10/11 22:37:19;;;;;;;4.25;2.60;;;;;;;16.21;52.73;95086.44;5069704;28;20035;-74
2021/10/11 22:39:44;;;;;;;4.32;2.70;;;;;;;16.17;52.64;95072.53;5087162;28;20410;-74
2021/10/11 22:42:10;;;;;;;4.15;2.33;;;;;;;16.14;52.79;95073.81;5087157;28;20028;-74
2021/10/11 22:44:35;;;;;;;4.53;2.75;;;;;;;16.12;52.75;95069.69;5087316;28;20061;-74
2021/10/11 22:47:00;;;;;;;4.20;2.67;;;;;;;16.10;52.91;95067.19;5088012;28;20413;-74
2021/10/11 22:49:26;;;;;;;4.80;2.75;;;;;;;16.08;52.82;95071.16;5087548;28;20383;-74
2021/10/11 22:52:11;;;;;;;3.72;2.30;;;;;;;16.15;52.72;95069.22;5089116;28;20024;-74
2021/10/11 22:54:36;;;;;;;4.20;2.60;;;;;;;16.24;52.32;95067.06;5071453;28;20035;-74
2021/10/11 22:57:02;;;;;;;4.50;2.50;;;;;;;16.33;52.25;95071.13;5071596;28;20016;-74
2021/10/11 22:59:27;;;;;;;4.25;2.13;;;;;;;16.41;52.23;95072.75;5072135;28;20028;-75
2021/10/11 23:01:52;;;;;;;3.53;2.17;;;;;;;16.47;52.05;95077.28;5088047;28;20028;-74
2021/10/11 23:04:19;;;;;;;3.05;1.95;;;;;;;16.51;51.67;95074.94;5089919;28;20027;-75
2021/10/11 23:06:45;;;;;;;4.22;2.38;;;;;;;16.59;51.67;95082.75;5071044;28;20024;-75
2021/10/11 23:09:10;;;;;;;6.40;2.47;;;;;;;16.63;51.31;95081.28;5087804;28;20454;-74
2021/10/11 23:11:36;;;;;;;4.80;2.50;;;;;;;16.71;51.65;95088.28;5070708;28;20082;-74
2021/10/11 23:14:01;;;;;;;4.75;2.47;;;;;;;16.74;51.30;95089.69;5088293;28;20030;-74
2021/10/11 23:16:27;;;;;;;4.63;2.13;;;;;;;16.71;51.31;95082.03;5087453;28;20475;-74
2021/10/11 23:18:52;;;;;;;3.97;2.28;;;;;;;16.74;51.17;95081.56;5089039;28;20024;-74
2021/10/11 23:21:17;;;;;;;3.25;2.00;;;;;;;16.73;50.92;95086.19;5051041;28;20039;-74
2021/10/11 23:23:43;;;;;;;3.90;1.90;;;;;;;16.72;51.16;95078.28;5050780;28;20040;-75
2021/10/11 23:26:08;;;;;;;4.38;2.00;;;;;;;16.65;51.19;95079.16;5051455;28;20029;-74
2021/10/11 23:28:34;;;;;;;3.20;1.83;;;;;;;16.58;51.28;95077.56;5066845;28;20032;-75
2021/10/11 23:30:59;;;;;;;3.50;2.08;;;;;;;16.52;51.45;95074.69;5088050;28;20426;-74
2021/10/11 23:33:25;;;;;;;3.75;1.90;;;;;;;16.45;51.70;95068.53;5087022;28;20032;-74
2021/10/11 23:35:50;;;;;;;4.10;2.10;;;;;;;16.42;51.69;95053.59;5070992;28;20028;-74
2021/10/11 23:38:16;;;;;;;3.30;1.80;;;;;;;16.44;51.61;95053.34;5070216;28;20508;-75
2021/10/11 23:40:43;;;;;;;3.90;2.17;;;;;;;16.44;51.53;95042.53;5086108;28;20031;-74
2021/10/11 23:43:09;;;;;;;4.25;2.17;;;;;;;16.40;51.35;95036.72;5054694;28;20028;-74
2021/10/11 23:45:35;;;;;;;3.90;2.25;;;;;;;16.32;51.79;95039.72;5069916;28;20024;-74
2021/10/11 23:48:00;;;;;;;3.67;1.98;;;;;;;16.29;51.70;95041.00;5089245;28;20397;-74
2021/10/11 23:50:26;;;;;;;4.60;2.08;;;;;;;16.32;51.74;95042.44;5089515;28;20086;-74
2021/10/11 23:52:51;;;;;;;4.30;1.88;;;;;;;16.34;51.83;95045.75;5067503;28;20032;-74
2021/10/11 23:55:17;;;;;;;2.83;1.67;;;;;;;16.36;51.76;95054.47;5062390;28;20039;-74
2021/10/11 23:57:42;;;;;;;3.05;1.88;;;;;;;16.38;51.67;95043.44;5087232;28;20031;-74
